createdAt,value
2019-02-17T00:02:19.571Z,99.30
2019-02-17T00:04:47.065Z,99.10
2019-02-17T00:07:14.754Z,99.30
2019-02-17T00:09:42.591Z,99.20
2019-02-17T00:12:10.370Z,99.00
2019-02-17T00:14:38.087Z,98.90
2019-02-17T00:17:06.100Z,99.00
2019-02-17T00:19:34.016Z,98.40
2019-02-17T00:22:01.458Z,98.80
2019-02-17T00:24:29.291Z,98.00
2019-02-17T00:26:56.866Z,98.40
2019-02-17T00:29:24.945Z,97.40
2019-02-17T00:31:52.531Z,97.70
2019-02-17T00:34:20.137Z,98.00
2019-02-17T00:36:48.228Z,98.00
2019-02-17T00:39:15.753Z,98.50
2019-02-17T00:41:43.662Z,99.10
2019-02-17T00:44:11.180Z,98.80
2019-02-17T00:46:38.763Z,99.20
2019-02-17T00:49:06.507Z,99.20
2019-02-17T00:51:34.302Z,98.50
2019-02-17T00:54:01.807Z,98.90
2019-02-17T00:56:29.298Z,99.30
2019-02-17T00:58:56.890Z,99.90
2019-02-17T01:01:25.352Z,99.60
2019-02-17T01:03:53.607Z,99.30
2019-02-17T01:06:21.042Z,99.80
2019-02-17T01:08:48.734Z,99.90
2019-02-17T01:11:16.266Z,99.80
2019-02-17T01:13:44.086Z,99.90
2019-02-17T01:16:11.546Z,99.80
2019-02-17T01:18:39.326Z,99.90
2019-02-17T01:21:07.094Z,99.70
2019-02-17T01:23:34.595Z,99.80
2019-02-17T01:26:02.720Z,99.90
2019-02-17T01:28:30.313Z,99.90
2019-02-17T01:30:59.151Z,99.90
2019-02-17T01:33:27.020Z,99.90
2019-02-17T01:35:55.126Z,99.90
2019-02-17T01:38:22.898Z,99.90
2019-02-17T01:40:51.474Z,99.90
2019-02-17T01:43:19.331Z,99.90
2019-02-17T01:45:46.966Z,99.90
2019-02-17T01:48:14.454Z,99.90
2019-02-17T01:50:42.067Z,99.90
2019-02-17T01:53:10.194Z,99.90
2019-02-17T01:55:37.992Z,99.90
2019-02-17T01:58:05.727Z,99.90
2019-02-17T02:00:33.827Z,99.90
2019-02-17T02:03:01.651Z,99.90
2019-02-17T02:05:29.786Z,99.90
2019-02-17T02:07:57.255Z,99.90
2019-02-17T02:10:25.135Z,99.90
2019-02-17T02:12:52.986Z,99.90
2019-02-17T02:15:20.598Z,99.90
2019-02-17T02:17:48.078Z,99.90
2019-02-17T02:20:15.625Z,99.90
2019-02-17T02:22:43.175Z,99.90
2019-02-17T02:25:10.741Z,99.90
2019-02-17T02:27:38.356Z,99.90
2019-02-17T02:30:07.661Z,99.90
2019-02-17T02:32:35.556Z,99.90
2019-02-17T02:35:03.063Z,99.90
2019-02-17T02:37:30.867Z,99.90
2019-02-17T02:39:58.380Z,99.90
2019-02-17T02:42:25.899Z,99.90
2019-02-17T02:44:53.547Z,99.90
2019-02-17T02:47:21.138Z,99.90
2019-02-17T02:49:48.777Z,99.90
2019-02-17T02:52:16.624Z,99.90
2019-02-17T02:54:44.535Z,99.90
2019-02-17T02:57:12.139Z,99.90
2019-02-17T02:59:39.709Z,99.90
2019-02-17T03:02:07.891Z,99.90
2019-02-17T03:04:35.861Z,99.90
2019-02-17T03:07:09.506Z,99.90
2019-02-17T03:09:37.605Z,99.90
2019-02-17T03:12:05.123Z,99.90
2019-02-17T03:14:32.746Z,99.90
2019-02-17T03:17:00.856Z,99.90
2019-02-17T03:19:28.799Z,99.90
2019-02-17T03:21:56.316Z,99.90
2019-02-17T03:24:23.822Z,99.90
2019-02-17T03:26:51.404Z,99.90
2019-02-17T03:29:19.249Z,99.90
2019-02-17T03:31:46.927Z,99.90
2019-02-17T03:34:14.752Z,99.90
2019-02-17T03:36:42.546Z,99.90
2019-02-17T03:39:10.512Z,99.90
2019-02-17T03:41:38.654Z,99.90
2019-02-17T03:44:06.752Z,99.90
2019-02-17T03:46:34.874Z,99.90
2019-02-17T03:49:03.010Z,99.90
2019-02-17T03:51:30.888Z,99.90
2019-02-17T03:53:59.277Z,99.90
2019-02-17T03:56:26.874Z,99.90
2019-02-17T03:58:54.343Z,99.90
2019-02-17T04:01:22.322Z,99.90
2019-02-17T04:03:49.919Z,99.90
2019-02-17T04:06:17.478Z,99.90
2019-02-17T04:08:45.827Z,99.90
2019-02-17T04:11:13.654Z,99.90
2019-02-17T04:13:41.533Z,99.90
2019-02-17T04:16:09.291Z,99.90
2019-02-17T04:18:37.178Z,99.90
2019-02-17T04:21:04.956Z,99.90
2019-02-17T04:23:32.542Z,99.90
2019-02-17T04:26:00.045Z,99.90
2019-02-17T04:28:27.670Z,99.90
2019-02-17T04:30:55.149Z,99.90
2019-02-17T04:33:23.058Z,99.90
2019-02-17T04:35:50.542Z,99.90
2019-02-17T04:38:18.203Z,99.90
2019-02-17T04:40:45.918Z,99.90
2019-02-17T04:43:13.563Z,99.90
2019-02-17T04:45:41.393Z,99.90
2019-02-17T04:48:09.242Z,99.90
2019-02-17T04:50:37.114Z,99.90
2019-02-17T04:53:04.617Z,99.90
2019-02-17T04:55:32.400Z,99.90
2019-02-17T04:58:00.161Z,99.90
2019-02-17T05:00:39.228Z,99.90
2019-02-17T05:02:57.727Z,99.90
2019-02-17T05:05:25.351Z,99.90
2019-02-17T05:07:52.904Z,99.90
2019-02-17T05:10:20.552Z,99.90
2019-02-17T05:12:48.092Z,99.90
2019-02-17T05:15:15.666Z,99.90
2019-02-17T05:17:43.163Z,99.90
2019-02-17T05:20:11.067Z,99.90
2019-02-17T05:22:39.568Z,99.90
2019-02-17T05:25:07.380Z,99.90
2019-02-17T05:27:35.263Z,99.90
2019-02-17T05:30:03.168Z,99.90
2019-02-17T05:32:31.358Z,99.90
2019-02-17T05:34:59.880Z,99.90
2019-02-17T05:37:27.801Z,99.90
2019-02-17T05:39:56.145Z,99.90
2019-02-17T05:42:23.640Z,99.90
2019-02-17T05:44:51.228Z,99.90
2019-02-17T05:47:18.749Z,99.90
2019-02-17T05:49:46.623Z,99.90
2019-02-17T05:52:14.122Z,99.90
2019-02-17T05:54:42.342Z,99.90
2019-02-17T05:57:10.229Z,99.90
2019-02-17T05:59:37.874Z,99.90
2019-02-17T06:02:05.455Z,99.90
2019-02-17T06:04:33.671Z,99.90
2019-02-17T06:07:01.460Z,99.90
2019-02-17T06:09:29.334Z,99.90
2019-02-17T06:11:57.188Z,99.90
2019-02-17T06:14:24.963Z,99.90
2019-02-17T06:16:52.412Z,99.90
2019-02-17T06:19:20.626Z,99.90
2019-02-17T06:21:48.409Z,99.90
2019-02-17T06:24:16.278Z,99.90
2019-02-17T06:26:43.762Z,99.90
2019-02-17T06:29:11.255Z,99.90
2019-02-17T06:31:38.839Z,99.90
2019-02-17T06:34:06.435Z,99.90
2019-02-17T06:36:34.279Z,99.90
2019-02-17T06:39:02.018Z,99.90
2019-02-17T06:41:29.843Z,99.90
2019-02-17T06:43:57.563Z,99.90
2019-02-17T06:46:29.523Z,99.90
2019-02-17T06:48:57.007Z,99.90
2019-02-17T06:51:24.482Z,99.90
2019-02-17T06:53:52.242Z,99.90
2019-02-17T06:56:25.707Z,99.90
2019-02-17T06:58:53.538Z,99.90
2019-02-17T07:01:24.706Z,99.90
2019-02-17T07:03:50.664Z,99.90
2019-02-17T07:06:44.010Z,99.90
2019-02-17T07:09:11.831Z,99.90
2019-02-17T07:11:39.612Z,99.90
2019-02-17T07:14:07.471Z,99.90
2019-02-17T07:16:35.055Z,99.90
2019-02-17T07:19:02.542Z,99.90
2019-02-17T07:21:30.446Z,99.90
2019-02-17T07:23:58.621Z,99.90
2019-02-17T07:26:26.584Z,99.90
2019-02-17T07:28:54.142Z,99.90
2019-02-17T07:31:22.689Z,99.90
2019-02-17T07:33:50.510Z,99.90
2019-02-17T07:36:18.190Z,99.90
2019-02-17T07:38:45.970Z,99.90
2019-02-17T07:41:13.822Z,99.90
2019-02-17T07:43:41.941Z,99.90
2019-02-17T07:46:09.556Z,99.90
2019-02-17T07:48:37.116Z,99.20
2019-02-17T07:51:05.109Z,96.60
2019-02-17T07:53:32.686Z,90.10
2019-02-17T07:56:00.995Z,79.00
2019-02-17T07:58:28.662Z,68.70
2019-02-17T08:00:56.471Z,63.20
2019-02-17T08:03:23.968Z,59.80
2019-02-17T08:05:51.815Z,54.90
2019-02-17T08:08:19.446Z,51.40
2019-02-17T08:10:47.082Z,49.00
2019-02-17T08:13:15.156Z,45.40
2019-02-17T08:15:42.734Z,45.20
2019-02-17T08:18:10.496Z,42.90
2019-02-17T08:20:38.534Z,42.10
2019-02-17T08:23:06.010Z,42.70
2019-02-17T08:25:33.806Z,42.30
2019-02-17T08:28:01.419Z,42.50
2019-02-17T08:30:29.025Z,39.30
2019-02-17T08:32:56.626Z,37.70
2019-02-17T08:35:24.557Z,38.40
2019-02-17T08:37:52.140Z,38.00
2019-02-17T08:40:20.395Z,38.00
2019-02-17T08:42:47.986Z,38.80
2019-02-17T08:45:19.144Z,39.00
2019-02-17T08:47:47.319Z,39.10
2019-02-17T08:50:14.907Z,39.90
2019-02-17T08:52:42.413Z,39.80
2019-02-17T08:55:09.997Z,40.50
2019-02-17T08:57:38.197Z,37.30
2019-02-17T09:00:07.979Z,38.20
2019-02-17T09:02:35.479Z,36.90
2019-02-17T09:05:03.358Z,36.50
2019-02-17T09:07:31.284Z,36.70
2019-02-17T09:09:59.462Z,37.70
2019-02-17T09:12:27.341Z,36.30
2019-02-17T09:14:55.398Z,36.00
2019-02-17T09:17:22.920Z,36.20
2019-02-17T09:19:50.385Z,35.00
2019-02-17T09:22:18.022Z,35.80
2019-02-17T09:24:45.788Z,35.80
2019-02-17T09:27:13.283Z,34.30
2019-02-17T09:29:41.083Z,33.40
2019-02-17T09:32:16.083Z,33.60
2019-02-17T09:34:38.226Z,32.10
2019-02-17T09:37:06.107Z,33.70
2019-02-17T09:39:34.243Z,33.90
2019-02-17T09:42:02.027Z,33.90
2019-02-17T09:44:29.822Z,32.50
2019-02-17T09:46:57.669Z,32.30
2019-02-17T09:49:25.846Z,32.10
2019-02-17T09:51:53.750Z,33.70
2019-02-17T09:54:21.511Z,34.60
2019-02-17T09:56:49.619Z,35.90
2019-02-17T09:59:17.341Z,37.00
2019-02-17T10:01:45.519Z,37.00
2019-02-17T10:04:13.270Z,36.10
2019-02-17T10:06:40.821Z,36.60
2019-02-17T10:09:09.082Z,37.20
2019-02-17T10:11:36.962Z,37.10
2019-02-17T10:14:04.531Z,37.40
2019-02-17T10:16:32.099Z,37.10
2019-02-17T10:19:00.322Z,35.90
2019-02-17T10:21:28.129Z,35.10
2019-02-17T10:23:55.734Z,36.00
2019-02-17T10:26:23.267Z,37.10
2019-02-17T10:28:50.908Z,37.30
2019-02-17T10:31:18.760Z,35.90
2019-02-17T10:33:46.380Z,35.40
2019-02-17T10:36:13.930Z,35.40
2019-02-17T10:38:41.774Z,35.00
2019-02-17T10:41:09.486Z,34.60
2019-02-17T10:43:37.028Z,35.00
2019-02-17T10:46:06.122Z,34.40
2019-02-17T10:48:34.146Z,35.20
2019-02-17T10:51:01.983Z,36.20
2019-02-17T10:53:29.515Z,35.20
2019-02-17T10:55:57.348Z,34.30
2019-02-17T10:58:25.224Z,34.10
2019-02-17T11:00:53.461Z,34.10
2019-02-17T11:03:22.958Z,33.70
2019-02-17T11:05:50.430Z,33.40
2019-02-17T11:08:18.249Z,34.00
2019-02-17T11:10:45.831Z,34.60
2019-02-17T11:13:15.114Z,33.70
2019-02-17T11:15:42.823Z,32.70
2019-02-17T11:18:11.027Z,32.50
2019-02-17T11:20:38.614Z,32.70
2019-02-17T11:23:06.650Z,32.10
2019-02-17T11:25:34.291Z,31.90
2019-02-17T11:28:01.902Z,31.10
2019-02-17T11:30:29.353Z,30.80
2019-02-17T11:32:58.215Z,32.80
2019-02-17T11:35:26.224Z,33.00
2019-02-17T11:37:53.698Z,32.30
2019-02-17T11:40:21.182Z,32.30
2019-02-17T11:42:48.662Z,32.00
2019-02-17T11:45:16.706Z,33.10
2019-02-17T11:47:44.221Z,33.80
2019-02-17T11:50:12.107Z,33.80
2019-02-17T11:52:39.632Z,33.10
2019-02-17T11:55:08.268Z,33.20
2019-02-17T11:57:36.026Z,32.90
2019-02-17T12:00:05.023Z,32.70
2019-02-17T12:02:32.833Z,32.40
2019-02-17T12:05:00.700Z,31.60
2019-02-17T12:07:28.353Z,31.80
2019-02-17T12:09:56.310Z,32.50
2019-02-17T12:12:23.835Z,31.60
2019-02-17T12:14:51.375Z,31.40
2019-02-17T12:17:19.766Z,31.70
2019-02-17T12:19:48.011Z,32.20
2019-02-17T12:22:25.059Z,31.80
2019-02-17T12:25:07.478Z,31.30
2019-02-17T12:27:48.994Z,31.30
2019-02-17T12:30:20.655Z,30.70
2019-02-17T12:32:48.431Z,30.90
2019-02-17T12:35:19.894Z,31.40
2019-02-17T12:37:48.055Z,31.10
2019-02-17T12:40:16.160Z,31.10
2019-02-17T12:42:43.615Z,31.80
2019-02-17T12:45:17.950Z,30.70
2019-02-17T12:47:57.436Z,31.60
2019-02-17T12:50:20.199Z,30.90
2019-02-17T12:52:47.989Z,30.70
2019-02-17T12:55:15.814Z,30.00
2019-02-17T12:57:43.373Z,29.60
2019-02-17T13:00:15.064Z,29.40
2019-02-17T13:02:42.693Z,29.90
2019-02-17T13:05:10.294Z,30.40
2019-02-17T13:07:39.193Z,30.90
2019-02-17T13:10:07.889Z,31.20
2019-02-17T13:12:35.369Z,31.50
2019-02-17T13:15:03.410Z,31.10
2019-02-17T13:17:31.154Z,31.00
2019-02-17T13:19:58.687Z,30.70
2019-02-17T13:22:26.597Z,30.20
2019-02-17T13:24:54.190Z,30.10
2019-02-17T13:27:21.922Z,30.00
2019-02-17T13:29:50.289Z,29.60
2019-02-17T13:32:18.140Z,29.90
2019-02-17T13:34:46.090Z,30.10
2019-02-17T13:37:13.998Z,29.50
2019-02-17T13:39:42.446Z,29.20
2019-02-17T13:42:10.018Z,29.20
2019-02-17T13:44:37.906Z,29.40
2019-02-17T13:47:05.718Z,30.10
2019-02-17T13:49:33.776Z,29.90
2019-02-17T13:52:01.647Z,29.50
2019-02-17T13:54:29.401Z,28.70
2019-02-17T13:56:57.002Z,29.40
2019-02-17T13:59:24.472Z,30.00
2019-02-17T14:01:52.518Z,29.90
2019-02-17T14:04:21.030Z,29.90
2019-02-17T14:06:49.590Z,30.50
2019-02-17T14:09:17.187Z,30.60
2019-02-17T14:11:44.726Z,30.70
2019-02-17T14:14:12.611Z,31.10
2019-02-17T14:16:40.718Z,30.50
2019-02-17T14:19:08.692Z,30.90
2019-02-17T14:21:36.319Z,31.10
2019-02-17T14:24:04.441Z,32.30
2019-02-17T14:26:32.316Z,32.40
2019-02-17T14:29:00.215Z,32.40
2019-02-17T14:31:28.556Z,32.90
2019-02-17T14:33:58.634Z,33.00
2019-02-17T14:36:26.423Z,33.20
2019-02-17T14:38:54.017Z,33.70
2019-02-17T14:41:22.148Z,34.20
2019-02-17T14:43:51.216Z,35.00
2019-02-17T14:46:18.738Z,35.50
2019-02-17T14:48:46.918Z,35.90
2019-02-17T14:51:14.398Z,35.70
2019-02-17T14:53:41.862Z,35.60
2019-02-17T14:56:09.917Z,35.50
2019-02-17T14:58:37.808Z,36.10
2019-02-17T15:01:06.009Z,36.10
2019-02-17T15:03:34.203Z,35.90
2019-02-17T15:06:02.053Z,36.10
2019-02-17T15:08:29.835Z,36.30
2019-02-17T15:10:57.746Z,36.50
2019-02-17T15:13:25.846Z,36.40
2019-02-17T15:15:53.470Z,36.80
2019-02-17T15:18:21.319Z,36.80
2019-02-17T15:20:49.103Z,37.10
2019-02-17T15:23:17.079Z,37.30
2019-02-17T15:25:44.646Z,37.60
2019-02-17T15:28:12.546Z,37.30
2019-02-17T15:30:40.683Z,37.60
2019-02-17T15:33:08.514Z,37.30
2019-02-17T15:35:51.666Z,37.20
2019-02-17T15:38:19.546Z,37.20
2019-02-17T15:40:48.042Z,37.20
2019-02-17T15:43:15.926Z,37.10
2019-02-17T15:45:43.394Z,37.60
2019-02-17T15:48:11.186Z,38.30
2019-02-17T15:50:38.746Z,38.80
2019-02-17T15:53:06.765Z,38.90
2019-02-17T15:55:34.396Z,39.40
2019-02-17T15:58:02.019Z,38.80
2019-02-17T16:00:29.650Z,38.90
2019-02-17T16:02:57.550Z,39.20
2019-02-17T16:05:25.752Z,39.30
2019-02-17T16:07:55.719Z,39.50
2019-02-17T16:10:23.191Z,39.80
2019-02-17T16:12:51.174Z,39.80
2019-02-17T16:15:19.428Z,40.20
2019-02-17T16:17:47.220Z,40.10
2019-02-17T16:20:17.273Z,40.00
2019-02-17T16:22:44.877Z,39.90
2019-02-17T16:25:12.746Z,40.00
2019-02-17T16:27:40.890Z,40.00
2019-02-17T16:30:11.146Z,40.20
2019-02-17T16:32:38.615Z,40.40
2019-02-17T16:35:06.278Z,40.20
2019-02-17T16:37:33.830Z,40.10
2019-02-17T16:40:01.342Z,40.00
2019-02-17T16:42:28.859Z,39.90
2019-02-17T16:44:56.441Z,39.80
2019-02-17T16:47:24.418Z,39.70
2019-02-17T16:49:51.970Z,39.70
2019-02-17T16:52:19.658Z,39.80
2019-02-17T16:54:48.025Z,39.70
2019-02-17T16:57:15.866Z,39.70
2019-02-17T16:59:43.646Z,39.80
2019-02-17T17:02:11.146Z,40.10
2019-02-17T17:04:47.822Z,40.80
2019-02-17T17:07:08.808Z,40.90
2019-02-17T17:09:36.598Z,40.90
2019-02-17T17:12:04.535Z,41.20
2019-02-17T17:14:32.178Z,41.50
2019-02-17T17:17:01.033Z,41.80
2019-02-17T17:19:29.702Z,42.00
2019-02-17T17:21:57.346Z,42.50
2019-02-17T17:24:25.708Z,42.60
2019-02-17T17:26:53.440Z,43.00
2019-02-17T17:29:21.150Z,42.90
2019-02-17T17:31:48.726Z,43.10
2019-02-17T17:34:16.663Z,44.70
2019-02-17T17:36:44.195Z,45.90
2019-02-17T17:39:11.724Z,46.40
2019-02-17T17:41:39.230Z,46.30
2019-02-17T17:44:06.753Z,46.80
2019-02-17T17:46:34.261Z,47.50
2019-02-17T17:49:01.872Z,48.30
2019-02-17T17:51:29.478Z,49.30
2019-02-17T17:53:57.092Z,49.60
2019-02-17T17:56:24.683Z,49.80
2019-02-17T17:58:52.298Z,50.50
2019-02-17T18:01:19.850Z,51.40
2019-02-17T18:03:47.318Z,52.80
2019-02-17T18:06:17.112Z,53.70
2019-02-17T18:08:44.618Z,54.40
2019-02-17T18:11:12.834Z,55.40
2019-02-17T18:13:40.658Z,55.80
2019-02-17T18:16:08.779Z,56.30
2019-02-17T18:18:36.373Z,57.10
2019-02-17T18:21:04.361Z,57.50
2019-02-17T18:23:32.239Z,58.40
2019-02-17T18:26:00.047Z,59.10
2019-02-17T18:28:29.375Z,59.90
2019-02-17T18:30:56.879Z,60.00
2019-02-17T18:33:24.493Z,61.40
2019-02-17T18:35:52.587Z,62.10
2019-02-17T18:38:20.187Z,63.40
2019-02-17T18:40:47.994Z,64.10
2019-02-17T18:43:15.561Z,65.00
2019-02-17T18:45:43.403Z,65.20
2019-02-17T18:48:13.318Z,65.80
2019-02-17T18:50:41.667Z,67.20
2019-02-17T18:53:09.247Z,67.20
2019-02-17T18:55:37.106Z,68.20
2019-02-17T18:58:04.636Z,68.30
2019-02-17T19:00:32.530Z,70.10
2019-02-17T19:03:00.167Z,71.90
2019-02-17T19:05:31.826Z,72.40
2019-02-17T19:07:57.689Z,73.00
2019-02-17T19:10:25.307Z,73.50
2019-02-17T19:12:53.156Z,74.80
2019-02-17T19:15:20.823Z,74.70
2019-02-17T19:17:48.459Z,73.60
2019-02-17T19:20:17.107Z,73.30
2019-02-17T19:22:44.984Z,74.20
2019-02-17T19:25:15.650Z,73.80
2019-02-17T19:27:43.230Z,75.90
2019-02-17T19:30:12.387Z,75.20
2019-02-17T19:32:39.906Z,75.20
2019-02-17T19:35:08.695Z,76.40
2019-02-17T19:37:36.623Z,76.40
2019-02-17T19:40:04.515Z,76.80
2019-02-17T19:42:32.330Z,77.10
2019-02-17T19:45:00.107Z,78.70
2019-02-17T19:47:28.371Z,78.40
2019-02-17T19:49:56.222Z,78.10
2019-02-17T19:52:24.452Z,77.30
2019-02-17T19:54:51.991Z,78.10
2019-02-17T20:00:58.083Z,78.00
2019-02-17T20:03:35.042Z,77.60
2019-02-17T20:06:03.545Z,77.20
2019-02-17T20:08:32.019Z,77.80
2019-02-17T20:11:00.844Z,77.20
2019-02-17T20:13:29.062Z,77.50
2019-02-17T20:15:56.697Z,78.50
2019-02-17T20:18:24.230Z,78.10
2019-02-17T20:20:52.015Z,78.80
2019-02-17T20:23:20.210Z,77.90
2019-02-17T20:25:48.032Z,78.20
2019-02-17T20:28:15.754Z,78.00
2019-02-17T20:30:43.355Z,77.20
2019-02-17T20:33:11.142Z,77.60
2019-02-17T20:35:39.361Z,79.20
2019-02-17T20:38:07.002Z,80.90
2019-02-17T20:40:34.627Z,79.60
2019-02-17T20:43:02.380Z,79.60
2019-02-17T20:45:30.350Z,77.90
2019-02-17T20:47:58.301Z,77.40
2019-02-17T20:50:26.231Z,75.70
2019-02-17T20:52:53.850Z,75.80
2019-02-17T20:55:21.520Z,75.50
2019-02-17T20:57:49.398Z,76.40
2019-02-17T21:00:17.536Z,78.70
2019-02-17T21:02:45.435Z,81.00
2019-02-17T21:05:12.975Z,80.80
2019-02-17T21:07:41.252Z,82.10
2019-02-17T21:10:08.823Z,82.20
2019-02-17T21:12:36.640Z,83.40
2019-02-17T21:15:06.308Z,83.90
2019-02-17T21:17:34.290Z,84.00
2019-02-17T21:20:02.275Z,83.20
2019-02-17T21:22:30.097Z,83.20
2019-02-17T21:24:58.180Z,84.00
2019-02-17T21:27:25.843Z,84.90
2019-02-17T21:29:53.510Z,84.60
2019-02-17T21:32:22.452Z,84.80
2019-02-17T21:34:50.332Z,85.20
2019-02-17T21:37:17.988Z,84.80
2019-02-17T21:39:45.542Z,85.40
2019-02-17T21:42:13.098Z,84.40
2019-02-17T21:44:40.846Z,84.70
2019-02-17T21:47:08.426Z,85.70
2019-02-17T21:49:36.059Z,86.00
2019-02-17T21:52:03.911Z,87.20
2019-02-17T21:54:31.419Z,87.70
2019-02-17T21:56:58.950Z,87.60
2019-02-17T21:59:26.842Z,87.90
2019-02-17T22:01:54.560Z,87.30
2019-02-17T22:04:22.139Z,86.80
2019-02-17T22:06:50.055Z,86.80
2019-02-17T22:09:18.177Z,85.90
2019-02-17T22:11:46.324Z,85.80
2019-02-17T22:14:14.100Z,86.10
2019-02-17T22:16:42.055Z,86.10
2019-02-17T22:19:10.267Z,86.60
2019-02-17T22:21:38.707Z,88.50
2019-02-17T22:24:07.425Z,90.30
2019-02-17T22:26:35.114Z,90.50
2019-02-17T22:29:02.774Z,90.80
2019-02-17T22:31:30.636Z,92.00
2019-02-17T22:33:58.582Z,92.40
2019-02-17T22:36:26.334Z,92.30
2019-02-17T22:38:54.286Z,92.20
2019-02-17T22:41:22.232Z,91.80
2019-02-17T22:43:49.830Z,91.80
2019-02-17T22:46:17.733Z,91.60
2019-02-17T22:48:45.299Z,91.60
2019-02-17T22:51:13.275Z,91.40
2019-02-17T22:53:43.892Z,91.40
2019-02-17T22:56:11.166Z,91.40
2019-02-17T22:58:39.327Z,92.00
2019-02-17T23:01:09.338Z,91.70
2019-02-17T23:03:37.197Z,92.10
2019-02-17T23:06:04.875Z,91.60
2019-02-17T23:08:32.487Z,91.60
2019-02-17T23:11:00.127Z,92.00
2019-02-17T23:13:27.635Z,92.30
2019-02-17T23:15:55.395Z,92.40
2019-02-17T23:18:23.566Z,92.80
2019-02-17T23:20:51.066Z,93.40
2019-02-17T23:23:18.734Z,92.70
2019-02-17T23:25:46.290Z,92.60
2019-02-17T23:28:13.822Z,92.10
2019-02-17T23:30:41.610Z,91.90
2019-02-17T23:33:09.188Z,92.50
2019-02-17T23:35:36.639Z,92.70
2019-02-17T23:38:04.182Z,92.70
2019-02-17T23:40:31.771Z,93.00
2019-02-17T23:42:59.386Z,92.60
2019-02-17T23:45:27.562Z,92.70
2019-02-17T23:47:55.079Z,93.60
2019-02-17T23:50:23.015Z,93.40
2019-02-17T23:52:50.978Z,92.90
2019-02-17T23:55:18.490Z,93.20
2019-02-17T23:57:46.078Z,93.60
